sensor_id;sensor_type;location;lat;lon;timestamp;P1;durP1;ratioP1;P2;durP2;ratioP2
79149;SDS011;68563;45.644;13.782;2023-04-24T00:00:27;5.60;;;2.95;;
79149;SDS011;68563;45.644;13.782;2023-04-24T00:02:52;7.22;;;3.42;;
79149;SDS011;68563;45.644;13.782;2023-04-24T00:05:22;10.07;;;3.63;;
79149;SDS011;68563;45.644;13.782;2023-04-24T00:07:47;7.93;;;3.90;;
79149;SDS011;68563;45.644;13.782;2023-04-24T00:10:13;4.72;;;3.67;;
79149;SDS011;68563;45.644;13.782;2023-04-24T00:12:38;6.55;;;3.70;;
79149;SDS011;68563;45.644;13.782;2023-04-24T00:15:04;6.25;;;3.65;;
79149;SDS011;68563;45.644;13.782;2023-04-24T00:17:30;7.57;;;3.78;;
79149;SDS011;68563;45.644;13.782;2023-04-24T00:19:56;6.88;;;4.20;;
79149;SDS011;68563;45.644;13.782;2023-04-24T00:22:27;5.40;;;3.72;;
79149;SDS011;68563;45.644;13.782;2023-04-24T00:27:18;7.30;;;4.03;;
79149;SDS011;68563;45.644;13.782;2023-04-24T00:29:44;5.47;;;3.88;;
79149;SDS011;68563;45.644;13.782;2023-04-24T00:32:09;5.72;;;3.42;;
79149;SDS011;68563;45.644;13.782;2023-04-24T00:34:35;5.97;;;4.25;;
79149;SDS011;68563;45.644;13.782;2023-04-24T00:37:00;6.60;;;3.85;;
79149;SDS011;68563;45.644;13.782;2023-04-24T00:39:26;10.57;;;5.07;;
79149;SDS011;68563;45.644;13.782;2023-04-24T00:41:51;8.73;;;4.53;;
79149;SDS011;68563;45.644;13.782;2023-04-24T00:44:18;10.57;;;4.63;;
79149;SDS011;68563;45.644;13.782;2023-04-24T00:46:43;9.77;;;3.83;;
79149;SDS011;68563;45.644;13.782;2023-04-24T00:49:09;5.70;;;3.53;;
79149;SDS011;68563;45.644;13.782;2023-04-24T00:51:35;6.63;;;3.90;;
79149;SDS011;68563;45.644;13.782;2023-04-24T00:54:01;5.47;;;3.58;;
79149;SDS011;68563;45.644;13.782;2023-04-24T00:56:27;8.02;;;3.88;;
79149;SDS011;68563;45.644;13.782;2023-04-24T00:58:53;6.53;;;3.97;;
79149;SDS011;68563;45.644;13.782;2023-04-24T01:01:19;9.18;;;4.20;;
79149;SDS011;68563;45.644;13.782;2023-04-24T01:03:46;6.38;;;4.90;;
79149;SDS011;68563;45.644;13.782;2023-04-24T01:06:12;9.55;;;4.00;;
79149;SDS011;68563;45.644;13.782;2023-04-24T01:08:39;4.57;;;3.95;;
79149;SDS011;68563;45.644;13.782;2023-04-24T01:11:05;7.40;;;4.60;;
79149;SDS011;68563;45.644;13.782;2023-04-24T01:13:31;7.13;;;4.70;;
79149;SDS011;68563;45.644;13.782;2023-04-24T01:15:57;6.65;;;4.90;;
79149;SDS011;68563;45.644;13.782;2023-04-24T01:18:22;8.52;;;4.50;;
79149;SDS011;68563;45.644;13.782;2023-04-24T01:20:48;8.60;;;4.95;;
79149;SDS011;68563;45.644;13.782;2023-04-24T01:23:18;5.65;;;4.15;;
79149;SDS011;68563;45.644;13.782;2023-04-24T01:25:43;6.53;;;3.75;;
79149;SDS011;68563;45.644;13.782;2023-04-24T01:28:09;7.68;;;4.75;;
79149;SDS011;68563;45.644;13.782;2023-04-24T01:30:35;7.72;;;4.60;;
79149;SDS011;68563;45.644;13.782;2023-04-24T01:33:00;9.10;;;4.30;;
79149;SDS011;68563;45.644;13.782;2023-04-24T01:35:26;6.97;;;4.65;;
79149;SDS011;68563;45.644;13.782;2023-04-24T01:37:52;6.57;;;4.45;;
79149;SDS011;68563;45.644;13.782;2023-04-24T01:40:17;5.93;;;4.13;;
79149;SDS011;68563;45.644;13.782;2023-04-24T01:42:43;11.07;;;5.07;;
79149;SDS011;68563;45.644;13.782;2023-04-24T01:45:10;8.35;;;5.15;;
79149;SDS011;68563;45.644;13.782;2023-04-24T01:47:37;8.90;;;4.80;;
79149;SDS011;68563;45.644;13.782;2023-04-24T01:50:03;8.32;;;5.38;;
79149;SDS011;68563;45.644;13.782;2023-04-24T01:52:29;7.82;;;4.30;;
79149;SDS011;68563;45.644;13.782;2023-04-24T01:54:56;5.07;;;4.10;;
79149;SDS011;68563;45.644;13.782;2023-04-24T01:57:24;8.35;;;5.15;;
79149;SDS011;68563;45.644;13.782;2023-04-24T01:59:50;11.18;;;5.30;;
79149;SDS011;68563;45.644;13.782;2023-04-24T02:02:16;7.85;;;4.07;;
79149;SDS011;68563;45.644;13.782;2023-04-24T02:04:42;8.77;;;4.25;;
79149;SDS011;68563;45.644;13.782;2023-04-24T02:07:07;6.13;;;4.20;;
79149;SDS011;68563;45.644;13.782;2023-04-24T02:09:33;8.82;;;4.72;;
79149;SDS011;68563;45.644;13.782;2023-04-24T02:11:58;8.98;;;4.50;;
79149;SDS011;68563;45.644;13.782;2023-04-24T02:14:23;7.25;;;4.22;;
79149;SDS011;68563;45.644;13.782;2023-04-24T02:16:49;7.65;;;4.13;;
79149;SDS011;68563;45.644;13.782;2023-04-24T02:19:14;8.88;;;4.18;;
79149;SDS011;68563;45.644;13.782;2023-04-24T02:21:41;12.40;;;5.22;;
79149;SDS011;68563;45.644;13.782;2023-04-24T02:24:06;8.20;;;4.20;;
79149;SDS011;68563;45.644;13.782;2023-04-24T02:26:31;6.78;;;4.25;;
79149;SDS011;68563;45.644;13.782;2023-04-24T02:28:57;7.70;;;3.95;;
79149;SDS011;68563;45.644;13.782;2023-04-24T02:31:22;6.95;;;3.88;;
79149;SDS011;68563;45.644;13.782;2023-04-24T02:33:48;8.73;;;4.00;;
79149;SDS011;68563;45.644;13.782;2023-04-24T02:36:13;5.68;;;3.58;;
79149;SDS011;68563;45.644;13.782;2023-04-24T02:38:39;8.30;;;4.10;;
79149;SDS011;68563;45.644;13.782;2023-04-24T02:41:04;7.68;;;3.70;;
79149;SDS011;68563;45.644;13.782;2023-04-24T02:43:31;6.43;;;3.78;;
79149;SDS011;68563;45.644;13.782;2023-04-24T02:45:57;8.32;;;4.22;;
79149;SDS011;68563;45.644;13.782;2023-04-24T02:48:23;8.32;;;4.93;;
79149;SDS011;68563;45.644;13.782;2023-04-24T02:50:48;8.90;;;4.00;;
79149;SDS011;68563;45.644;13.782;2023-04-24T02:53:15;7.45;;;4.22;;
79149;SDS011;68563;45.644;13.782;2023-04-24T02:55:40;8.15;;;4.10;;
79149;SDS011;68563;45.644;13.782;2023-04-24T02:58:06;7.28;;;3.75;;
79149;SDS011;68563;45.644;13.782;2023-04-24T03:00:31;5.40;;;3.72;;
79149;SDS011;68563;45.644;13.782;2023-04-24T03:02:57;6.25;;;4.18;;
79149;SDS011;68563;45.644;13.782;2023-04-24T03:05:22;8.93;;;4.18;;
79149;SDS011;68563;45.644;13.782;2023-04-24T03:07:47;6.75;;;3.67;;
79149;SDS011;68563;45.644;13.782;2023-04-24T03:10:13;7.68;;;3.78;;
79149;SDS011;68563;45.644;13.782;2023-04-24T03:12:38;7.35;;;4.03;;
79149;SDS011;68563;45.644;13.782;2023-04-24T03:15:04;9.90;;;4.15;;
79149;SDS011;68563;45.644;13.782;2023-04-24T03:17:30;7.97;;;4.25;;
79149;SDS011;68563;45.644;13.782;2023-04-24T03:19:55;10.80;;;4.93;;
79149;SDS011;68563;45.644;13.782;2023-04-24T03:22:21;7.68;;;4.20;;
79149;SDS011;68563;45.644;13.782;2023-04-24T03:24:46;10.82;;;5.10;;
79149;SDS011;68563;45.644;13.782;2023-04-24T03:27:11;8.57;;;4.88;;
79149;SDS011;68563;45.644;13.782;2023-04-24T03:29:37;7.53;;;4.97;;
79149;SDS011;68563;45.644;13.782;2023-04-24T03:32:02;9.10;;;5.03;;
79149;SDS011;68563;45.644;13.782;2023-04-24T03:34:28;6.72;;;4.10;;
79149;SDS011;68563;45.644;13.782;2023-04-24T03:36:53;10.10;;;5.20;;
79149;SDS011;68563;45.644;13.782;2023-04-24T03:39:18;6.82;;;5.03;;
79149;SDS011;68563;45.644;13.782;2023-04-24T03:41:44;7.93;;;3.97;;
79149;SDS011;68563;45.644;13.782;2023-04-24T03:44:09;8.52;;;4.55;;
79149;SDS011;68563;45.644;13.782;2023-04-24T03:46:35;10.05;;;5.00;;
79149;SDS011;68563;45.644;13.782;2023-04-24T03:49:00;10.27;;;5.57;;
79149;SDS011;68563;45.644;13.782;2023-04-24T03:51:25;6.63;;;4.30;;
79149;SDS011;68563;45.644;13.782;2023-04-24T03:53:53;11.43;;;5.20;;
79149;SDS011;68563;45.644;13.782;2023-04-24T03:56:18;7.03;;;4.50;;
79149;SDS011;68563;45.644;13.782;2023-04-24T03:58:43;9.07;;;4.13;;
79149;SDS011;68563;45.644;13.782;2023-04-24T04:01:09;7.80;;;4.75;;
79149;SDS011;68563;45.644;13.782;2023-04-24T04:03:36;9.23;;;4.60;;
79149;SDS011;68563;45.644;13.782;2023-04-24T04:06:02;6.47;;;4.13;;
79149;SDS011;68563;45.644;13.782;2023-04-24T04:08:27;6.78;;;4.03;;
79149;SDS011;68563;45.644;13.782;2023-04-24T04:10:53;9.63;;;4.68;;
79149;SDS011;68563;45.644;13.782;2023-04-24T04:13:18;8.65;;;4.95;;
79149;SDS011;68563;45.644;13.782;2023-04-24T04:15:43;6.68;;;4.32;;
79149;SDS011;68563;45.644;13.782;2023-04-24T04:18:09;10.27;;;5.55;;
79149;SDS011;68563;45.644;13.782;2023-04-24T04:20:34;6.40;;;4.30;;
79149;SDS011;68563;45.644;13.782;2023-04-24T04:23:00;7.40;;;4.03;;
79149;SDS011;68563;45.644;13.782;2023-04-24T04:25:25;8.30;;;3.90;;
79149;SDS011;68563;45.644;13.782;2023-04-24T04:27:50;7.38;;;4.60;;
79149;SDS011;68563;45.644;13.782;2023-04-24T04:30:17;7.80;;;4.75;;
79149;SDS011;68563;45.644;13.782;2023-04-24T04:32:43;15.45;;;4.97;;
79149;SDS011;68563;45.644;13.782;2023-04-24T04:35:09;9.88;;;4.85;;
79149;SDS011;68563;45.644;13.782;2023-04-24T04:37:35;7.88;;;4.40;;
79149;SDS011;68563;45.644;13.782;2023-04-24T04:40:00;8.02;;;4.60;;
79149;SDS011;68563;45.644;13.782;2023-04-24T04:42:31;6.07;;;4.78;;
79149;SDS011;68563;45.644;13.782;2023-04-24T04:44:57;8.88;;;4.18;;
79149;SDS011;68563;45.644;13.782;2023-04-24T04:47:23;7.40;;;4.57;;
79149;SDS011;68563;45.644;13.782;2023-04-24T04:49:49;7.35;;;4.10;;
79149;SDS011;68563;45.644;13.782;2023-04-24T04:52:16;8.50;;;4.72;;
79149;SDS011;68563;45.644;13.782;2023-04-24T04:54:42;6.32;;;4.63;;
79149;SDS011;68563;45.644;13.782;2023-04-24T04:57:08;9.07;;;5.00;;
79149;SDS011;68563;45.644;13.782;2023-04-24T04:59:33;9.30;;;5.00;;
79149;SDS011;68563;45.644;13.782;2023-04-24T05:01:59;6.93;;;4.40;;
79149;SDS011;68563;45.644;13.782;2023-04-24T05:04:25;6.30;;;4.63;;
79149;SDS011;68563;45.644;13.782;2023-04-24T05:06:51;9.80;;;4.60;;
79149;SDS011;68563;45.644;13.782;2023-04-24T05:09:17;8.10;;;4.45;;
79149;SDS011;68563;45.644;13.782;2023-04-24T05:11:43;10.02;;;4.18;;
79149;SDS011;68563;45.644;13.782;2023-04-24T05:14:08;9.40;;;4.28;;
79149;SDS011;68563;45.644;13.782;2023-04-24T05:16:34;13.10;;;4.45;;
79149;SDS011;68563;45.644;13.782;2023-04-24T05:18:59;9.63;;;5.07;;
79149;SDS011;68563;45.644;13.782;2023-04-24T05:21:25;7.22;;;4.15;;
79149;SDS011;68563;45.644;13.782;2023-04-24T05:23:51;7.22;;;4.80;;
79149;SDS011;68563;45.644;13.782;2023-04-24T05:26:17;7.40;;;4.30;;
79149;SDS011;68563;45.644;13.782;2023-04-24T05:28:42;9.32;;;4.93;;
79149;SDS011;68563;45.644;13.782;2023-04-24T05:31:08;12.23;;;5.25;;
79149;SDS011;68563;45.644;13.782;2023-04-24T05:33:33;6.57;;;4.40;;
79149;SDS011;68563;45.644;13.782;2023-04-24T05:35:58;9.88;;;4.40;;
79149;SDS011;68563;45.644;13.782;2023-04-24T05:38:24;10.43;;;4.80;;
79149;SDS011;68563;45.644;13.782;2023-04-24T05:40:49;8.90;;;4.80;;
79149;SDS011;68563;45.644;13.782;2023-04-24T05:43:15;10.05;;;5.25;;
79149;SDS011;68563;45.644;13.782;2023-04-24T05:45:40;8.55;;;4.78;;
79149;SDS011;68563;45.644;13.782;2023-04-24T05:48:05;7.40;;;4.10;;
79149;SDS011;68563;45.644;13.782;2023-04-24T05:50:31;9.57;;;5.28;;
79149;SDS011;68563;45.644;13.782;2023-04-24T05:52:56;12.15;;;5.55;;
79149;SDS011;68563;45.644;13.782;2023-04-24T05:55:24;7.35;;;4.30;;
79149;SDS011;68563;45.644;13.782;2023-04-24T05:57:50;6.70;;;4.80;;
79149;SDS011;68563;45.644;13.782;2023-04-24T06:00:16;9.93;;;4.75;;
79149;SDS011;68563;45.644;13.782;2023-04-24T06:02:42;11.20;;;5.55;;
79149;SDS011;68563;45.644;13.782;2023-04-24T06:05:08;7.60;;;4.53;;
79149;SDS011;68563;45.644;13.782;2023-04-24T06:07:34;9.25;;;5.00;;
79149;SDS011;68563;45.644;13.782;2023-04-24T06:09:59;10.45;;;4.78;;
79149;SDS011;68563;45.644;13.782;2023-04-24T06:12:25;8.30;;;4.90;;
79149;SDS011;68563;45.644;13.782;2023-04-24T06:14:50;10.23;;;5.05;;
79149;SDS011;68563;45.644;13.782;2023-04-24T06:17:16;8.20;;;4.32;;
79149;SDS011;68563;45.644;13.782;2023-04-24T06:19:42;10.52;;;4.57;;
79149;SDS011;68563;45.644;13.782;2023-04-24T06:22:07;8.07;;;4.88;;
79149;SDS011;68563;45.644;13.782;2023-04-24T06:24:33;8.27;;;4.22;;
79149;SDS011;68563;45.644;13.782;2023-04-24T06:26:59;9.10;;;5.18;;
79149;SDS011;68563;45.644;13.782;2023-04-24T06:29:26;8.18;;;4.30;;
79149;SDS011;68563;45.644;13.782;2023-04-24T06:31:52;8.55;;;4.35;;
79149;SDS011;68563;45.644;13.782;2023-04-24T06:34:17;5.88;;;4.50;;
79149;SDS011;68563;45.644;13.782;2023-04-24T06:36:43;9.15;;;4.45;;
79149;SDS011;68563;45.644;13.782;2023-04-24T06:39:08;11.70;;;4.47;;
79149;SDS011;68563;45.644;13.782;2023-04-24T06:41:34;9.82;;;4.78;;
79149;SDS011;68563;45.644;13.782;2023-04-24T06:43:59;10.95;;;5.22;;
79149;SDS011;68563;45.644;13.782;2023-04-24T06:46:25;9.00;;;4.00;;
79149;SDS011;68563;45.644;13.782;2023-04-24T06:48:52;12.90;;;5.47;;
79149;SDS011;68563;45.644;13.782;2023-04-24T06:51:24;8.95;;;5.03;;
79149;SDS011;68563;45.644;13.782;2023-04-24T06:53:52;8.48;;;4.53;;
79149;SDS011;68563;45.644;13.782;2023-04-24T06:56:18;7.85;;;4.93;;
79149;SDS011;68563;45.644;13.782;2023-04-24T06:58:44;7.95;;;4.72;;
79149;SDS011;68563;45.644;13.782;2023-04-24T07:01:10;9.30;;;5.43;;
79149;SDS011;68563;45.644;13.782;2023-04-24T07:03:36;9.45;;;5.45;;
79149;SDS011;68563;45.644;13.782;2023-04-24T07:06:01;7.80;;;5.15;;
79149;SDS011;68563;45.644;13.782;2023-04-24T07:08:28;9.85;;;4.63;;
79149;SDS011;68563;45.644;13.782;2023-04-24T07:10:55;11.27;;;5.35;;
79149;SDS011;68563;45.644;13.782;2023-04-24T07:13:21;10.27;;;5.55;;
79149;SDS011;68563;45.644;13.782;2023-04-24T07:15:47;9.18;;;4.95;;
79149;SDS011;68563;45.644;13.782;2023-04-24T07:18:15;10.77;;;5.30;;
79149;SDS011;68563;45.644;13.782;2023-04-24T07:20:40;8.63;;;4.82;;
79149;SDS011;68563;45.644;13.782;2023-04-24T07:23:06;8.50;;;4.80;;
79149;SDS011;68563;45.644;13.782;2023-04-24T07:25:31;10.75;;;4.88;;
79149;SDS011;68563;45.644;13.782;2023-04-24T07:27:57;8.90;;;4.95;;
79149;SDS011;68563;45.644;13.782;2023-04-24T07:30:22;8.77;;;4.22;;
79149;SDS011;68563;45.644;13.782;2023-04-24T07:32:48;9.07;;;5.32;;
79149;SDS011;68563;45.644;13.782;2023-04-24T07:35:13;7.70;;;4.32;;
79149;SDS011;68563;45.644;13.782;2023-04-24T07:37:38;8.70;;;5.30;;
79149;SDS011;68563;45.644;13.782;2023-04-24T07:40:04;9.50;;;5.38;;
79149;SDS011;68563;45.644;13.782;2023-04-24T07:42:30;9.23;;;4.70;;
79149;SDS011;68563;45.644;13.782;2023-04-24T07:44:55;8.13;;;5.20;;
79149;SDS011;68563;45.644;13.782;2023-04-24T07:47:21;9.60;;;5.78;;
79149;SDS011;68563;45.644;13.782;2023-04-24T07:49:47;10.68;;;5.97;;
79149;SDS011;68563;45.644;13.782;2023-04-24T07:52:12;6.65;;;5.22;;
79149;SDS011;68563;45.644;13.782;2023-04-24T07:54:37;10.35;;;5.72;;
79149;SDS011;68563;45.644;13.782;2023-04-24T07:57:03;15.40;;;5.70;;
79149;SDS011;68563;45.644;13.782;2023-04-24T07:59:29;11.93;;;5.95;;
79149;SDS011;68563;45.644;13.782;2023-04-24T08:01:54;8.93;;;6.40;;
79149;SDS011;68563;45.644;13.782;2023-04-24T08:04:20;12.95;;;5.80;;
79149;SDS011;68563;45.644;13.782;2023-04-24T08:06:49;11.13;;;5.68;;
79149;SDS011;68563;45.644;13.782;2023-04-24T08:09:14;12.70;;;5.50;;
79149;SDS011;68563;45.644;13.782;2023-04-24T08:11:39;9.70;;;5.47;;
79149;SDS011;68563;45.644;13.782;2023-04-24T08:14:05;12.05;;;6.75;;
79149;SDS011;68563;45.644;13.782;2023-04-24T08:16:32;9.70;;;5.90;;
79149;SDS011;68563;45.644;13.782;2023-04-24T08:18:57;10.02;;;5.97;;
79149;SDS011;68563;45.644;13.782;2023-04-24T08:21:23;10.48;;;5.22;;
79149;SDS011;68563;45.644;13.782;2023-04-24T08:23:48;8.65;;;4.70;;
79149;SDS011;68563;45.644;13.782;2023-04-24T08:26:14;10.90;;;5.45;;
79149;SDS011;68563;45.644;13.782;2023-04-24T08:28:39;13.07;;;5.82;;
79149;SDS011;68563;45.644;13.782;2023-04-24T08:31:05;8.98;;;5.55;;
79149;SDS011;68563;45.644;13.782;2023-04-24T08:33:30;8.68;;;5.15;;
79149;SDS011;68563;45.644;13.782;2023-04-24T08:36:00;9.13;;;5.55;;
79149;SDS011;68563;45.644;13.782;2023-04-24T08:38:26;8.77;;;5.80;;
79149;SDS011;68563;45.644;13.782;2023-04-24T08:40:52;12.10;;;6.10;;
79149;SDS011;68563;45.644;13.782;2023-04-24T08:43:17;11.40;;;4.97;;
79149;SDS011;68563;45.644;13.782;2023-04-24T08:45:46;7.88;;;5.20;;
79149;SDS011;68563;45.644;13.782;2023-04-24T08:48:12;8.77;;;4.93;;
79149;SDS011;68563;45.644;13.782;2023-04-24T08:50:38;9.25;;;5.22;;
79149;SDS011;68563;45.644;13.782;2023-04-24T08:53:07;5.78;;;4.40;;
79149;SDS011;68563;45.644;13.782;2023-04-24T08:55:33;9.77;;;4.10;;
79149;SDS011;68563;45.644;13.782;2023-04-24T08:57:59;8.30;;;3.97;;
79149;SDS011;68563;45.644;13.782;2023-04-24T09:00:26;5.05;;;3.78;;
79149;SDS011;68563;45.644;13.782;2023-04-24T09:02:52;5.07;;;4.07;;
79149;SDS011;68563;45.644;13.782;2023-04-24T09:05:18;14.18;;;3.70;;
79149;SDS011;68563;45.644;13.782;2023-04-24T09:07:48;6.00;;;3.30;;
79149;SDS011;68563;45.644;13.782;2023-04-24T09:10:17;8.73;;;3.60;;
79149;SDS011;68563;45.644;13.782;2023-04-24T09:12:42;5.65;;;3.88;;
79149;SDS011;68563;45.644;13.782;2023-04-24T09:15:09;4.88;;;2.92;;
79149;SDS011;68563;45.644;13.782;2023-04-24T09:17:35;6.38;;;3.92;;
79149;SDS011;68563;45.644;13.782;2023-04-24T09:20:01;5.50;;;2.97;;
79149;SDS011;68563;45.644;13.782;2023-04-24T09:22:29;7.10;;;3.20;;
79149;SDS011;68563;45.644;13.782;2023-04-24T09:25:05;6.40;;;3.83;;
79149;SDS011;68563;45.644;13.782;2023-04-24T09:27:33;4.40;;;2.13;;
79149;SDS011;68563;45.644;13.782;2023-04-24T09:29:59;5.78;;;3.35;;
79149;SDS011;68563;45.644;13.782;2023-04-24T09:32:26;5.05;;;3.40;;
79149;SDS011;68563;45.644;13.782;2023-04-24T09:37:41;5.25;;;2.92;;
79149;SDS011;68563;45.644;13.782;2023-04-24T09:40:08;5.60;;;3.45;;
79149;SDS011;68563;45.644;13.782;2023-04-24T09:42:37;4.70;;;3.30;;
79149;SDS011;68563;45.644;13.782;2023-04-24T09:45:02;6.10;;;3.60;;
79149;SDS011;68563;45.644;13.782;2023-04-24T09:47:35;4.45;;;3.67;;
79149;SDS011;68563;45.644;13.782;2023-04-24T09:50:08;7.15;;;3.95;;
79149;SDS011;68563;45.644;13.782;2023-04-24T09:52:45;5.65;;;3.70;;
79149;SDS011;68563;45.644;13.782;2023-04-24T09:55:13;5.53;;;3.45;;
79149;SDS011;68563;45.644;13.782;2023-04-24T09:57:48;5.50;;;3.22;;
79149;SDS011;68563;45.644;13.782;2023-04-24T10:00:18;6.15;;;3.33;;
79149;SDS011;68563;45.644;13.782;2023-04-24T10:02:44;6.65;;;3.35;;
79149;SDS011;68563;45.644;13.782;2023-04-24T10:05:10;3.97;;;2.72;;
79149;SDS011;68563;45.644;13.782;2023-04-24T10:07:37;5.35;;;3.20;;
79149;SDS011;68563;45.644;13.782;2023-04-24T10:10:03;7.05;;;3.70;;
79149;SDS011;68563;45.644;13.782;2023-04-24T10:12:29;6.50;;;3.30;;
79149;SDS011;68563;45.644;13.782;2023-04-24T10:14:55;4.70;;;2.65;;
79149;SDS011;68563;45.644;13.782;2023-04-24T10:17:21;4.18;;;2.90;;
79149;SDS011;68563;45.644;13.782;2023-04-24T10:19:49;4.78;;;3.20;;
79149;SDS011;68563;45.644;13.782;2023-04-24T10:22:16;10.07;;;3.25;;
79149;SDS011;68563;45.644;13.782;2023-04-24T10:24:42;6.82;;;3.88;;
79149;SDS011;68563;45.644;13.782;2023-04-24T10:27:09;7.05;;;3.50;;
79149;SDS011;68563;45.644;13.782;2023-04-24T10:29:34;5.32;;;3.03;;
79149;SDS011;68563;45.644;13.782;2023-04-24T10:32:00;8.23;;;3.10;;
79149;SDS011;68563;45.644;13.782;2023-04-24T10:34:26;5.05;;;2.95;;
79149;SDS011;68563;45.644;13.782;2023-04-24T10:36:53;6.75;;;3.63;;
79149;SDS011;68563;45.644;13.782;2023-04-24T10:39:20;8.27;;;2.97;;
79149;SDS011;68563;45.644;13.782;2023-04-24T10:41:48;6.13;;;3.00;;
79149;SDS011;68563;45.644;13.782;2023-04-24T10:44:14;6.25;;;2.55;;
79149;SDS011;68563;45.644;13.782;2023-04-24T10:46:44;3.67;;;2.67;;
79149;SDS011;68563;45.644;13.782;2023-04-24T10:49:17;4.25;;;2.20;;
79149;SDS011;68563;45.644;13.782;2023-04-24T10:51:53;7.05;;;2.35;;
79149;SDS011;68563;45.644;13.782;2023-04-24T10:56:50;3.80;;;2.33;;
79149;SDS011;68563;45.644;13.782;2023-04-24T10:59:26;4.13;;;2.97;;
79149;SDS011;68563;45.644;13.782;2023-04-24T11:01:53;4.65;;;2.65;;
79149;SDS011;68563;45.644;13.782;2023-04-24T11:04:29;3.38;;;2.13;;
79149;SDS011;68563;45.644;13.782;2023-04-24T11:06:56;5.80;;;3.13;;
79149;SDS011;68563;45.644;13.782;2023-04-24T11:09:22;3.97;;;2.75;;
79149;SDS011;68563;45.644;13.782;2023-04-24T11:11:51;5.20;;;2.92;;
79149;SDS011;68563;45.644;13.782;2023-04-24T11:14:28;4.13;;;2.70;;
79149;SDS011;68563;45.644;13.782;2023-04-24T11:16:54;4.90;;;3.10;;
79149;SDS011;68563;45.644;13.782;2023-04-24T11:19:24;5.93;;;2.80;;
79149;SDS011;68563;45.644;13.782;2023-04-24T11:22:13;4.45;;;3.30;;
79149;SDS011;68563;45.644;13.782;2023-04-24T11:24:40;6.57;;;3.33;;
79149;SDS011;68563;45.644;13.782;2023-04-24T11:29:47;6.30;;;3.08;;
79149;SDS011;68563;45.644;13.782;2023-04-24T11:34:58;4.75;;;3.03;;
79149;SDS011;68563;45.644;13.782;2023-04-24T11:37:29;6.20;;;2.80;;
79149;SDS011;68563;45.644;13.782;2023-04-24T11:39:59;6.65;;;3.25;;
79149;SDS011;68563;45.644;13.782;2023-04-24T11:42:24;4.55;;;2.50;;
79149;SDS011;68563;45.644;13.782;2023-04-24T11:44:54;9.63;;;2.90;;
79149;SDS011;68563;45.644;13.782;2023-04-24T11:49:52;6.18;;;3.10;;
79149;SDS011;68563;45.644;13.782;2023-04-24T11:52:18;5.68;;;2.90;;
79149;SDS011;68563;45.644;13.782;2023-04-24T11:54:50;5.28;;;2.90;;
79149;SDS011;68563;45.644;13.782;2023-04-24T11:57:16;5.25;;;2.63;;
79149;SDS011;68563;45.644;13.782;2023-04-24T11:59:44;7.40;;;3.40;;
79149;SDS011;68563;45.644;13.782;2023-04-24T12:02:19;6.05;;;2.83;;
79149;SDS011;68563;45.644;13.782;2023-04-24T12:04:45;5.50;;;2.42;;
79149;SDS011;68563;45.644;13.782;2023-04-24T12:07:11;6.70;;;3.58;;
79149;SDS011;68563;45.644;13.782;2023-04-24T12:09:40;5.75;;;3.45;;
79149;SDS011;68563;45.644;13.782;2023-04-24T12:12:12;3.10;;;2.17;;
79149;SDS011;68563;45.644;13.782;2023-04-24T12:14:45;6.35;;;2.83;;
79149;SDS011;68563;45.644;13.782;2023-04-24T12:17:13;3.67;;;1.95;;
79149;SDS011;68563;45.644;13.782;2023-04-24T12:19:44;6.90;;;2.08;;
79149;SDS011;68563;45.644;13.782;2023-04-24T12:22:10;4.03;;;2.00;;
79149;SDS011;68563;45.644;13.782;2023-04-24T12:24:54;4.60;;;2.20;;
79149;SDS011;68563;45.644;13.782;2023-04-24T12:30:00;4.28;;;2.05;;
79149;SDS011;68563;45.644;13.782;2023-04-24T12:32:27;6.78;;;2.30;;
79149;SDS011;68563;45.644;13.782;2023-04-24T12:34:53;4.38;;;2.50;;
79149;SDS011;68563;45.644;13.782;2023-04-24T12:37:20;3.83;;;2.28;;
79149;SDS011;68563;45.644;13.782;2023-04-24T12:40:04;2.97;;;2.00;;
79149;SDS011;68563;45.644;13.782;2023-04-24T12:42:34;5.00;;;2.88;;
79149;SDS011;68563;45.644;13.782;2023-04-24T12:45:06;6.32;;;2.88;;
79149;SDS011;68563;45.644;13.782;2023-04-24T12:47:33;3.42;;;2.45;;
79149;SDS011;68563;45.644;13.782;2023-04-24T12:49:59;4.38;;;2.60;;
79149;SDS011;68563;45.644;13.782;2023-04-24T12:52:25;6.57;;;2.50;;
79149;SDS011;68563;45.644;13.782;2023-04-24T12:54:55;4.70;;;2.00;;
79149;SDS011;68563;45.644;13.782;2023-04-24T12:57:22;5.65;;;2.13;;
79149;SDS011;68563;45.644;13.782;2023-04-24T12:59:48;6.10;;;1.80;;
79149;SDS011;68563;45.644;13.782;2023-04-24T13:02:14;4.53;;;1.20;;
79149;SDS011;68563;45.644;13.782;2023-04-24T13:04:48;3.55;;;0.73;;
79149;SDS011;68563;45.644;13.782;2023-04-24T13:07:17;0.93;;;0.70;;
79149;SDS011;68563;45.644;13.782;2023-04-24T13:09:52;1.05;;;0.90;;
79149;SDS011;68563;45.644;13.782;2023-04-24T13:12:19;0.90;;;0.50;;
79149;SDS011;68563;45.644;13.782;2023-04-24T13:14:45;1.63;;;0.90;;
79149;SDS011;68563;45.644;13.782;2023-04-24T13:17:11;1.45;;;0.80;;
79149;SDS011;68563;45.644;13.782;2023-04-24T13:19:41;3.22;;;0.88;;
79149;SDS011;68563;45.644;13.782;2023-04-24T13:22:09;0.70;;;0.63;;
79149;SDS011;68563;45.644;13.782;2023-04-24T13:24:36;1.30;;;0.70;;
79149;SDS011;68563;45.644;13.782;2023-04-24T13:27:02;1.20;;;0.70;;
79149;SDS011;68563;45.644;13.782;2023-04-24T13:29:28;3.42;;;1.10;;
79149;SDS011;68563;45.644;13.782;2023-04-24T13:31:54;2.17;;;0.90;;
79149;SDS011;68563;45.644;13.782;2023-04-24T13:34:20;2.67;;;0.90;;
79149;SDS011;68563;45.644;13.782;2023-04-24T13:36:46;3.35;;;1.00;;
79149;SDS011;68563;45.644;13.782;2023-04-24T13:39:12;1.98;;;1.05;;
79149;SDS011;68563;45.644;13.782;2023-04-24T13:41:40;3.65;;;1.08;;
79149;SDS011;68563;45.644;13.782;2023-04-24T13:44:06;1.60;;;0.90;;
79149;SDS011;68563;45.644;13.782;2023-04-24T13:46:32;1.88;;;1.00;;
79149;SDS011;68563;45.644;13.782;2023-04-24T13:48:57;1.73;;;1.10;;
79149;SDS011;68563;45.644;13.782;2023-04-24T13:51:24;1.13;;;0.70;;
79149;SDS011;68563;45.644;13.782;2023-04-24T13:53:52;2.05;;;0.90;;
79149;SDS011;68563;45.644;13.782;2023-04-24T13:56:18;1.80;;;1.23;;
79149;SDS011;68563;45.644;13.782;2023-04-24T13:58:43;3.80;;;1.10;;
79149;SDS011;68563;45.644;13.782;2023-04-24T14:01:09;2.40;;;0.90;;
79149;SDS011;68563;45.644;13.782;2023-04-24T14:03:36;2.63;;;0.70;;
79149;SDS011;68563;45.644;13.782;2023-04-24T14:06:02;2.53;;;0.90;;
79149;SDS011;68563;45.644;13.782;2023-04-24T14:08:27;1.40;;;0.60;;
79149;SDS011;68563;45.644;13.782;2023-04-24T14:10:53;3.08;;;0.70;;
79149;SDS011;68563;45.644;13.782;2023-04-24T14:13:18;1.65;;;0.70;;
79149;SDS011;68563;45.644;13.782;2023-04-24T14:15:45;1.15;;;0.70;;
79149;SDS011;68563;45.644;13.782;2023-04-24T14:18:10;1.05;;;0.75;;
79149;SDS011;68563;45.644;13.782;2023-04-24T14:20:36;3.35;;;0.50;;
79149;SDS011;68563;45.644;13.782;2023-04-24T14:23:01;1.42;;;0.68;;
79149;SDS011;68563;45.644;13.782;2023-04-24T14:25:26;2.70;;;1.00;;
79149;SDS011;68563;45.644;13.782;2023-04-24T14:27:52;2.38;;;0.80;;
79149;SDS011;68563;45.644;13.782;2023-04-24T14:30:17;2.45;;;0.60;;
79149;SDS011;68563;45.644;13.782;2023-04-24T14:32:43;1.13;;;0.52;;
79149;SDS011;68563;45.644;13.782;2023-04-24T14:35:09;1.50;;;0.98;;
79149;SDS011;68563;45.644;13.782;2023-04-24T14:37:35;2.75;;;0.88;;
79149;SDS011;68563;45.644;13.782;2023-04-24T14:40:01;0.60;;;0.60;;
79149;SDS011;68563;45.644;13.782;2023-04-24T14:42:26;0.90;;;0.60;;
79149;SDS011;68563;45.644;13.782;2023-04-24T14:44:53;1.80;;;0.60;;
79149;SDS011;68563;45.644;13.782;2023-04-24T14:47:19;1.15;;;0.73;;